sensor_id;sensor_type;location;lat;lon;timestamp;pressure;altitude;pressure_sealevel;temperature;humidity
56928;BME280;60850;52.502;13.426;2023-03-18T00:00:14;100659.59;;;8.78;69.94
56928;BME280;60850;52.502;13.426;2023-03-18T00:03:03;100656.09;;;8.76;69.65
56928;BME280;60850;52.502;13.426;2023-03-18T00:05:33;100664.84;;;8.82;69.49
56928;BME280;60850;52.502;13.426;2023-03-18T00:08:01;100664.91;;;8.78;69.79
56928;BME280;60850;52.502;13.426;2023-03-18T00:10:29;100662.03;;;8.88;68.64
56928;BME280;60850;52.502;13.426;2023-03-18T00:12:57;100663.88;;;8.86;69.02
56928;BME280;60850;52.502;13.426;2023-03-18T00:15:25;100654.22;;;8.82;68.46
56928;BME280;60850;52.502;13.426;2023-03-18T00:17:52;100657.00;;;8.75;69.05
56928;BME280;60850;52.502;13.426;2023-03-18T00:20:19;100660.63;;;8.71;69.37
56928;BME280;60850;52.502;13.426;2023-03-18T00:22:54;100650.91;;;8.70;69.31
56928;BME280;60850;52.502;13.426;2023-03-18T00:25:22;100657.03;;;8.72;69.95
56928;BME280;60850;52.502;13.426;2023-03-18T00:27:49;100650.97;;;8.66;69.33
56928;BME280;60850;52.502;13.426;2023-03-18T00:30:16;100641.13;;;8.71;68.94
56928;BME280;60850;52.502;13.426;2023-03-18T00:32:43;100644.63;;;8.73;68.98
56928;BME280;60850;52.502;13.426;2023-03-18T00:35:11;100646.50;;;8.69;69.61
56928;BME280;60850;52.502;13.426;2023-03-18T00:37:37;100643.78;;;8.71;69.66
56928;BME280;60850;52.502;13.426;2023-03-18T00:40:09;100647.38;;;8.70;68.97
56928;BME280;60850;52.502;13.426;2023-03-18T00:42:42;100650.97;;;8.66;68.47
56928;BME280;60850;52.502;13.426;2023-03-18T00:45:14;100645.81;;;8.58;68.74
56928;BME280;60850;52.502;13.426;2023-03-18T00:47:41;100646.91;;;8.48;69.65
56928;BME280;60850;52.502;13.426;2023-03-18T00:50:10;100641.59;;;8.48;70.50
56928;BME280;60850;52.502;13.426;2023-03-18T00:52:37;100645.31;;;8.39;70.65
56928;BME280;60850;52.502;13.426;2023-03-18T00:55:07;100643.56;;;8.37;70.74
56928;BME280;60850;52.502;13.426;2023-03-18T00:57:34;100633.97;;;8.28;71.12
56928;BME280;60850;52.502;13.426;2023-03-18T01:00:01;100643.66;;;8.31;70.88
56928;BME280;60850;52.502;13.426;2023-03-18T01:02:31;100645.50;;;8.27;70.95
56928;BME280;60850;52.502;13.426;2023-03-18T01:04:58;100641.97;;;8.26;71.44
56928;BME280;60850;52.502;13.426;2023-03-18T01:07:26;100628.84;;;8.19;71.78
56928;BME280;60850;52.502;13.426;2023-03-18T01:09:53;100640.31;;;8.21;71.80
56928;BME280;60850;52.502;13.426;2023-03-18T01:12:21;100648.31;;;8.19;71.97
56928;BME280;60850;52.502;13.426;2023-03-18T01:14:50;100639.50;;;8.16;71.17
56928;BME280;60850;52.502;13.426;2023-03-18T01:17:17;100640.38;;;8.16;71.93
56928;BME280;60850;52.502;13.426;2023-03-18T01:19:44;100635.00;;;8.21;71.60
56928;BME280;60850;52.502;13.426;2023-03-18T01:22:10;100632.44;;;8.15;72.12
56928;BME280;60850;52.502;13.426;2023-03-18T01:24:38;100633.44;;;8.09;72.68
56928;BME280;60850;52.502;13.426;2023-03-18T01:27:05;100629.84;;;8.13;72.11
56928;BME280;60850;52.502;13.426;2023-03-18T01:29:33;100624.56;;;8.10;72.24
56928;BME280;60850;52.502;13.426;2023-03-18T01:32:00;100628.09;;;8.12;72.25
56928;BME280;60850;52.502;13.426;2023-03-18T01:34:28;100626.25;;;8.14;72.27
56928;BME280;60850;52.502;13.426;2023-03-18T01:36:55;100625.31;;;8.17;71.19
56928;BME280;60850;52.502;13.426;2023-03-18T01:39:23;100627.13;;;8.15;71.76
56928;BME280;60850;52.502;13.426;2023-03-18T01:41:50;100626.34;;;8.11;71.48
56928;BME280;60850;52.502;13.426;2023-03-18T01:44:20;100628.81;;;8.20;71.22
56928;BME280;60850;52.502;13.426;2023-03-18T01:46:49;100621.88;;;8.13;71.33
56928;BME280;60850;52.502;13.426;2023-03-18T01:49:28;100624.44;;;8.16;71.20
56928;BME280;60850;52.502;13.426;2023-03-18T01:51:57;100626.09;;;8.23;71.51
56928;BME280;60850;52.502;13.426;2023-03-18T01:54:27;100616.25;;;8.29;70.54
56928;BME280;60850;52.502;13.426;2023-03-18T01:56:56;100618.94;;;8.27;70.59
56928;BME280;60850;52.502;13.426;2023-03-18T01:59:26;100626.09;;;8.23;71.15
56928;BME280;60850;52.502;13.426;2023-03-18T02:01:58;100628.69;;;8.26;70.76
56928;BME280;60850;52.502;13.426;2023-03-18T02:04:30;100624.22;;;8.29;70.62
56928;BME280;60850;52.502;13.426;2023-03-18T02:06:59;100631.50;;;8.19;70.35
56928;BME280;60850;52.502;13.426;2023-03-18T02:09:26;100629.72;;;8.19;70.46
56928;BME280;60850;52.502;13.426;2023-03-18T02:11:54;100632.41;;;8.18;70.73
56928;BME280;60850;52.502;13.426;2023-03-18T02:14:24;100630.50;;;8.24;70.42
56928;BME280;60850;52.502;13.426;2023-03-18T02:16:57;100632.41;;;8.16;71.09
56928;BME280;60850;52.502;13.426;2023-03-18T02:19:35;100635.97;;;8.15;70.90
56928;BME280;60850;52.502;13.426;2023-03-18T02:22:12;100634.22;;;8.14;70.66
56928;BME280;60850;52.502;13.426;2023-03-18T02:25:01;100617.47;;;8.12;71.29
56928;BME280;60850;52.502;13.426;2023-03-18T02:27:32;100624.41;;;8.19;71.06
56928;BME280;60850;52.502;13.426;2023-03-18T02:30:05;100618.22;;;8.19;69.94
56928;BME280;60850;52.502;13.426;2023-03-18T02:32:33;100632.38;;;8.19;70.50
56928;BME280;60850;52.502;13.426;2023-03-18T02:35:03;100623.47;;;8.22;70.44
56928;BME280;60850;52.502;13.426;2023-03-18T02:37:31;100625.19;;;8.24;70.13
56928;BME280;60850;52.502;13.426;2023-03-18T02:40:12;100625.31;;;8.18;70.06
56928;BME280;60850;52.502;13.426;2023-03-18T02:42:40;100623.69;;;8.11;70.63
56928;BME280;60850;52.502;13.426;2023-03-18T02:45:15;100623.59;;;8.14;70.80
56928;BME280;60850;52.502;13.426;2023-03-18T02:47:45;100624.56;;;8.12;71.31
56928;BME280;60850;52.502;13.426;2023-03-18T02:50:14;100617.38;;;8.15;71.88
56928;BME280;60850;52.502;13.426;2023-03-18T02:52:42;100626.19;;;8.17;70.47
56928;BME280;60850;52.502;13.426;2023-03-18T02:55:09;100626.97;;;8.24;69.79
56928;BME280;60850;52.502;13.426;2023-03-18T02:57:35;100617.25;;;8.23;69.71
56928;BME280;60850;52.502;13.426;2023-03-18T03:00:05;100614.56;;;8.24;69.65
56928;BME280;60850;52.502;13.426;2023-03-18T03:02:32;100618.19;;;8.20;69.67
56928;BME280;60850;52.502;13.426;2023-03-18T03:05:00;100617.25;;;8.23;69.72
56928;BME280;60850;52.502;13.426;2023-03-18T03:07:27;100616.34;;;8.25;69.45
56928;BME280;60850;52.502;13.426;2023-03-18T03:09:54;100611.97;;;8.21;69.87
56928;BME280;60850;52.502;13.426;2023-03-18T03:12:21;100617.28;;;8.21;69.65
56928;BME280;60850;52.502;13.426;2023-03-18T03:14:48;100615.56;;;8.17;70.31
56928;BME280;60850;52.502;13.426;2023-03-18T03:17:17;100614.84;;;8.11;70.93
56928;BME280;60850;52.502;13.426;2023-03-18T03:19:45;100622.81;;;8.11;70.86
56928;BME280;60850;52.502;13.426;2023-03-18T03:22:12;100629.03;;;8.08;71.19
56928;BME280;60850;52.502;13.426;2023-03-18T03:24:40;100629.88;;;8.10;70.65
56928;BME280;60850;52.502;13.426;2023-03-18T03:27:07;100622.78;;;8.12;69.96
56928;BME280;60850;52.502;13.426;2023-03-18T03:29:34;100629.00;;;8.11;70.79
56928;BME280;60850;52.502;13.426;2023-03-18T03:32:01;100627.28;;;8.07;71.12
56928;BME280;60850;52.502;13.426;2023-03-18T03:34:30;100633.47;;;8.08;72.02
56928;BME280;60850;52.502;13.426;2023-03-18T03:36:56;100630.81;;;8.08;72.10
56928;BME280;60850;52.502;13.426;2023-03-18T03:39:23;100633.34;;;8.14;71.84
56928;BME280;60850;52.502;13.426;2023-03-18T03:41:50;100627.09;;;8.18;71.28
56928;BME280;60850;52.502;13.426;2023-03-18T03:44:18;100633.25;;;8.20;70.95
56928;BME280;60850;52.502;13.426;2023-03-18T03:46:45;100627.22;;;8.10;71.43
56928;BME280;60850;52.502;13.426;2023-03-18T03:49:12;100625.47;;;8.09;71.46
56928;BME280;60850;52.502;13.426;2023-03-18T03:51:41;100626.34;;;8.11;71.52
56928;BME280;60850;52.502;13.426;2023-03-18T03:54:09;100623.75;;;8.07;72.15
56928;BME280;60850;52.502;13.426;2023-03-18T03:56:37;100619.41;;;8.01;72.17
56928;BME280;60850;52.502;13.426;2023-03-18T03:59:04;100622.19;;;7.95;73.07
56928;BME280;60850;52.502;13.426;2023-03-18T04:01:31;100631.84;;;7.99;72.87
56928;BME280;60850;52.502;13.426;2023-03-18T04:03:59;100619.56;;;7.93;73.64
56928;BME280;60850;52.502;13.426;2023-03-18T04:06:27;100623.13;;;7.92;74.19
56928;BME280;60850;52.502;13.426;2023-03-18T04:08:56;100628.47;;;7.91;74.11
56928;BME280;60850;52.502;13.426;2023-03-18T04:11:22;100628.47;;;7.91;73.84
56928;BME280;60850;52.502;13.426;2023-03-18T04:13:50;100631.97;;;7.93;73.91
56928;BME280;60850;52.502;13.426;2023-03-18T04:16:17;100627.56;;;7.92;73.29
56928;BME280;60850;52.502;13.426;2023-03-18T04:18:44;100637.34;;;7.90;73.59
56928;BME280;60850;52.502;13.426;2023-03-18T04:21:11;100642.59;;;7.91;73.73
56928;BME280;60850;52.502;13.426;2023-03-18T04:23:38;100640.81;;;7.92;73.58
56928;BME280;60850;52.502;13.426;2023-03-18T04:26:06;100644.31;;;7.94;73.98
56928;BME280;60850;52.502;13.426;2023-03-18T04:28:34;100645.31;;;7.88;74.12
56928;BME280;60850;52.502;13.426;2023-03-18T04:31:00;100646.16;;;7.90;73.78
56928;BME280;60850;52.502;13.426;2023-03-18T04:33:27;100646.31;;;7.83;74.41
56928;BME280;60850;52.502;13.426;2023-03-18T04:35:55;100656.03;;;7.82;74.86
56928;BME280;60850;52.502;13.426;2023-03-18T04:38:22;100649.91;;;7.79;75.39
56928;BME280;60850;52.502;13.426;2023-03-18T04:40:49;100654.34;;;7.78;75.59
56928;BME280;60850;52.502;13.426;2023-03-18T04:43:18;100658.69;;;7.81;75.26
56928;BME280;60850;52.502;13.426;2023-03-18T04:45:45;100657.03;;;7.77;75.87
56928;BME280;60850;52.502;13.426;2023-03-18T04:48:12;100656.09;;;7.79;75.64
56928;BME280;60850;52.502;13.426;2023-03-18T04:50:39;100657.78;;;7.83;75.52
56928;BME280;60850;52.502;13.426;2023-03-18T04:53:06;100658.69;;;7.82;75.62
56928;BME280;60850;52.502;13.426;2023-03-18T04:55:33;100657.81;;;7.80;76.12
56928;BME280;60850;52.502;13.426;2023-03-18T04:58:01;100670.19;;;7.81;75.91
56928;BME280;60850;52.502;13.426;2023-03-18T05:00:30;100656.94;;;7.80;76.33
56928;BME280;60850;52.502;13.426;2023-03-18T05:02:57;100664.16;;;7.71;76.49
56928;BME280;60850;52.502;13.426;2023-03-18T05:05:24;100671.28;;;7.68;77.17
56928;BME280;60850;52.502;13.426;2023-03-18T05:07:51;100662.50;;;7.64;77.81
56928;BME280;60850;52.502;13.426;2023-03-18T05:10:18;100664.34;;;7.59;78.57
56928;BME280;60850;52.502;13.426;2023-03-18T05:12:45;100659.06;;;7.58;79.79
56928;BME280;60850;52.502;13.426;2023-03-18T05:15:13;100662.66;;;7.55;79.75
56928;BME280;60850;52.502;13.426;2023-03-18T05:17:41;100666.25;;;7.51;80.48
56928;BME280;60850;52.502;13.426;2023-03-18T05:20:09;100661.00;;;7.47;81.15
56928;BME280;60850;52.502;13.426;2023-03-18T05:22:38;100661.06;;;7.43;81.73
56928;BME280;60850;52.502;13.426;2023-03-18T05:25:05;100664.69;;;7.38;81.88
56928;BME280;60850;52.502;13.426;2023-03-18T05:27:33;100667.41;;;7.32;82.68
56928;BME280;60850;52.502;13.426;2023-03-18T05:30:00;100664.75;;;7.35;83.01
56928;BME280;60850;52.502;13.426;2023-03-18T05:32:27;100669.13;;;7.36;83.06
56928;BME280;60850;52.502;13.426;2023-03-18T05:34:57;100667.34;;;7.36;83.34
56928;BME280;60850;52.502;13.426;2023-03-18T05:37:24;100673.50;;;7.38;83.76
56928;BME280;60850;52.502;13.426;2023-03-18T05:39:52;100669.97;;;7.38;84.61
56928;BME280;60850;52.502;13.426;2023-03-18T05:42:20;100661.94;;;7.44;83.33
56928;BME280;60850;52.502;13.426;2023-03-18T05:44:46;100669.91;;;7.44;83.42
56928;BME280;60850;52.502;13.426;2023-03-18T05:47:14;100664.66;;;7.41;83.75
56928;BME280;60850;52.502;13.426;2023-03-18T05:49:41;100671.63;;;7.45;84.17
56928;BME280;60850;52.502;13.426;2023-03-18T05:52:10;100673.38;;;7.49;83.71
56928;BME280;60850;52.502;13.426;2023-03-18T05:54:37;100675.97;;;7.52;82.63
56928;BME280;60850;52.502;13.426;2023-03-18T05:57:04;100671.53;;;7.54;82.91
56928;BME280;60850;52.502;13.426;2023-03-18T05:59:31;100682.91;;;7.59;82.01
56928;BME280;60850;52.502;13.426;2023-03-18T06:01:58;100678.53;;;7.58;81.98
56928;BME280;60850;52.502;13.426;2023-03-18T06:04:26;100677.38;;;7.75;81.74
56928;BME280;60850;52.502;13.426;2023-03-18T06:06:53;100675.59;;;7.77;81.21
56928;BME280;60850;52.502;13.426;2023-03-18T06:09:23;100671.97;;;7.82;80.42
56928;BME280;60850;52.502;13.426;2023-03-18T06:11:50;100678.00;;;7.92;80.21
56928;BME280;60850;52.502;13.426;2023-03-18T06:14:17;100676.09;;;8.00;79.73
56928;BME280;60850;52.502;13.426;2023-03-18T06:16:45;100674.22;;;8.05;79.25
56928;BME280;60850;52.502;13.426;2023-03-18T06:19:12;100670.50;;;8.15;78.18
56928;BME280;60850;52.502;13.426;2023-03-18T06:21:39;100675.88;;;8.12;77.44
56928;BME280;60850;52.502;13.426;2023-03-18T06:24:07;100676.53;;;8.23;76.97
56928;BME280;60850;52.502;13.426;2023-03-18T06:26:36;100688.88;;;8.27;76.76
56928;BME280;60850;52.502;13.426;2023-03-18T06:29:03;100691.44;;;8.34;76.12
56928;BME280;60850;52.502;13.426;2023-03-18T06:31:32;100691.47;;;8.32;76.08
56928;BME280;60850;52.502;13.426;2023-03-18T06:33:59;100700.28;;;8.36;75.94
56928;BME280;60850;52.502;13.426;2023-03-18T06:36:26;100697.63;;;8.34;76.01
56928;BME280;60850;52.502;13.426;2023-03-18T06:38:53;100704.53;;;8.46;75.37
56928;BME280;60850;52.502;13.426;2023-03-18T06:41:20;100701.81;;;8.49;75.10
56928;BME280;60850;52.502;13.426;2023-03-18T06:43:49;100699.84;;;8.60;74.28
56928;BME280;60850;52.502;13.426;2023-03-18T06:46:17;100697.94;;;8.65;74.12
56928;BME280;60850;52.502;13.426;2023-03-18T06:48:44;100696.16;;;8.66;74.27
56928;BME280;60850;52.502;13.426;2023-03-18T06:51:11;100696.00;;;8.73;74.27
56928;BME280;60850;52.502;13.426;2023-03-18T06:53:38;100696.06;;;8.70;73.58
56928;BME280;60850;52.502;13.426;2023-03-18T06:56:05;100706.63;;;8.75;72.96
56928;BME280;60850;52.502;13.426;2023-03-18T06:58:32;100708.22;;;8.84;72.80
56928;BME280;60850;52.502;13.426;2023-03-18T07:01:00;100705.16;;;9.03;71.99
56928;BME280;60850;52.502;13.426;2023-03-18T07:03:27;100712.53;;;9.32;69.79
56928;BME280;60850;52.502;13.426;2023-03-18T07:05:54;100713.28;;;9.76;67.37
56928;BME280;60850;52.502;13.426;2023-03-18T07:08:21;100717.84;;;10.44;62.89
56928;BME280;60850;52.502;13.426;2023-03-18T07:10:50;100726.28;;;10.94;61.46
56928;BME280;60850;52.502;13.426;2023-03-18T07:13:18;100724.84;;;11.41;57.89
56928;BME280;60850;52.502;13.426;2023-03-18T07:15:45;100733.78;;;12.26;54.89
56928;BME280;60850;52.502;13.426;2023-03-18T07:18:13;100741.38;;;12.64;52.39
56928;BME280;60850;52.502;13.426;2023-03-18T07:20:40;100737.97;;;13.09;50.59
56928;BME280;60850;52.502;13.426;2023-03-18T07:23:07;100732.41;;;13.39;49.28
56928;BME280;60850;52.502;13.426;2023-03-18T07:25:35;100735.06;;;13.40;48.36
56928;BME280;60850;52.502;13.426;2023-03-18T07:28:03;100739.81;;;13.56;47.83
56928;BME280;60850;52.502;13.426;2023-03-18T07:30:30;100734.84;;;13.68;47.66
56928;BME280;60850;52.502;13.426;2023-03-18T07:32:57;100734.06;;;13.43;47.47
56928;BME280;60850;52.502;13.426;2023-03-18T07:35:26;100722.19;;;13.27;48.20
56928;BME280;60850;52.502;13.426;2023-03-18T07:37:53;100739.59;;;13.13;48.88
56928;BME280;60850;52.502;13.426;2023-03-18T07:40:20;100745.06;;;13.35;49.32
56928;BME280;60850;52.502;13.426;2023-03-18T07:42:47;100747.78;;;13.57;48.71
56928;BME280;60850;52.502;13.426;2023-03-18T07:45:16;100743.25;;;13.36;49.11
56928;BME280;60850;52.502;13.426;2023-03-18T07:47:43;100754.06;;;13.56;48.31
56928;BME280;60850;52.502;13.426;2023-03-18T07:50:10;100748.28;;;13.67;47.90
56928;BME280;60850;52.502;13.426;2023-03-18T07:52:39;100746.38;;;14.36;46.66
56928;BME280;60850;52.502;13.426;2023-03-18T07:55:07;100760.13;;;15.11;45.15
56928;BME280;60850;52.502;13.426;2023-03-18T07:57:34;100760.97;;;15.72;44.22
56928;BME280;60850;52.502;13.426;2023-03-18T08:00:02;100758.56;;;16.20;42.17
56928;BME280;60850;52.502;13.426;2023-03-18T08:02:29;100770.75;;;16.64;41.62
56928;BME280;60850;52.502;13.426;2023-03-18T08:04:56;100762.53;;;16.84;40.60
56928;BME280;60850;52.502;13.426;2023-03-18T08:07:23;100771.28;;;17.05;41.04
56928;BME280;60850;52.502;13.426;2023-03-18T08:09:52;100769.09;;;18.57;38.58
56928;BME280;60850;52.502;13.426;2023-03-18T08:12:18;100762.72;;;20.30;35.33
56928;BME280;60850;52.502;13.426;2023-03-18T08:14:46;100763.34;;;21.26;32.51
56928;BME280;60850;52.502;13.426;2023-03-18T08:17:13;100760.72;;;21.88;31.71
56928;BME280;60850;52.502;13.426;2023-03-18T08:19:43;100759.56;;;22.88;29.90
56928;BME280;60850;52.502;13.426;2023-03-18T08:22:11;100764.44;;;23.18;29.66
56928;BME280;60850;52.502;13.426;2023-03-18T08:24:39;100764.53;;;24.29;28.26
56928;BME280;60850;52.502;13.426;2023-03-18T08:27:08;100760.91;;;24.83;27.06
56928;BME280;60850;52.502;13.426;2023-03-18T08:29:35;100768.50;;;26.03;25.67
56928;BME280;60850;52.502;13.426;2023-03-18T08:32:02;100778.97;;;26.96;24.35
56928;BME280;60850;52.502;13.426;2023-03-18T08:34:29;100781.72;;;26.67;24.66
56928;BME280;60850;52.502;13.426;2023-03-18T08:36:56;100787.31;;;26.75;24.60
56928;BME280;60850;52.502;13.426;2023-03-18T08:39:23;100780.47;;;27.47;23.76
56928;BME280;60850;52.502;13.426;2023-03-18T08:41:51;100782.44;;;28.02;23.50
56928;BME280;60850;52.502;13.426;2023-03-18T08:44:20;100787.06;;;28.29;22.83
56928;BME280;60850;52.502;13.426;2023-03-18T08:46:47;100773.91;;;28.32;23.20
56928;BME280;60850;52.502;13.426;2023-03-18T08:49:14;100774.78;;;27.12;23.92
56928;BME280;60850;52.502;13.426;2023-03-18T08:51:42;100782.25;;;25.92;25.47
56928;BME280;60850;52.502;13.426;2023-03-18T08:54:09;100777.50;;;25.12;26.27
56928;BME280;60850;52.502;13.426;2023-03-18T08:56:36;100770.56;;;24.00;26.97
56928;BME280;60850;52.502;13.426;2023-03-18T08:59:03;100772.75;;;22.58;29.03
56928;BME280;60850;52.502;13.426;2023-03-18T09:01:31;100775.09;;;21.65;30.20
56928;BME280;60850;52.502;13.426;2023-03-18T09:03:58;100776.22;;;20.84;31.58
56928;BME280;60850;52.502;13.426;2023-03-18T09:06:25;100785.75;;;20.23;32.83
56928;BME280;60850;52.502;13.426;2023-03-18T09:08:52;100791.13;;;20.38;33.05
56928;BME280;60850;52.502;13.426;2023-03-18T09:11:19;100789.00;;;19.87;33.72
56928;BME280;60850;52.502;13.426;2023-03-18T09:13:46;100800.25;;;19.67;35.14
56928;BME280;60850;52.502;13.426;2023-03-18T09:16:13;100789.47;;;19.51;35.63
56928;BME280;60850;52.502;13.426;2023-03-18T09:18:42;100792.28;;;19.35;36.00
56928;BME280;60850;52.502;13.426;2023-03-18T09:21:08;100797.53;;;19.08;36.58
56928;BME280;60850;52.502;13.426;2023-03-18T09:23:39;100796.91;;;19.19;37.14
56928;BME280;60850;52.502;13.426;2023-03-18T09:26:06;100792.34;;;19.05;39.01
56928;BME280;60850;52.502;13.426;2023-03-18T09:28:33;100789.25;;;18.81;37.57
56928;BME280;60850;52.502;13.426;2023-03-18T09:31:00;100792.56;;;18.41;38.82
56928;BME280;60850;52.502;13.426;2023-03-18T09:33:28;100793.53;;;18.24;39.02
56928;BME280;60850;52.502;13.426;2023-03-18T09:35:56;100796.56;;;18.18;39.71
56928;BME280;60850;52.502;13.426;2023-03-18T09:38:23;100799.03;;;18.06;39.44
56928;BME280;60850;52.502;13.426;2023-03-18T09:41:00;100807.38;;;18.18;39.66
56928;BME280;60850;52.502;13.426;2023-03-18T09:43:38;100814.25;;;18.23;39.98
56928;BME280;60850;52.502;13.426;2023-03-18T09:46:20;100818.09;;;18.35;40.16
56928;BME280;60850;52.502;13.426;2023-03-18T09:49:04;100817.38;;;18.31;40.09
56928;BME280;60850;52.502;13.426;2023-03-18T09:51:48;100814.22;;;18.39;40.11
56928;BME280;60850;52.502;13.426;2023-03-18T09:54:21;100818.25;;;18.32;39.92
56928;BME280;60850;52.502;13.426;2023-03-18T09:56:50;100815.56;;;18.00;40.35
56928;BME280;60850;52.502;13.426;2023-03-18T09:59:20;100815.78;;;17.80;41.37
56928;BME280;60850;52.502;13.426;2023-03-18T10:01:52;100813.28;;;17.77;41.42
56928;BME280;60850;52.502;13.426;2023-03-18T10:04:32;100812.72;;;17.70;41.81
56928;BME280;60850;52.502;13.426;2023-03-18T10:07:16;100801.28;;;17.32;42.33
56928;BME280;60850;52.502;13.426;2023-03-18T10:09:51;100801.88;;;17.54;42.52
56928;BME280;60850;52.502;13.426;2023-03-18T10:12:25;100811.81;;;17.87;43.08
56928;BME280;60850;52.502;13.426;2023-03-18T10:15:03;100804.25;;;18.09;43.20
56928;BME280;60850;52.502;13.426;2023-03-18T10:17:45;100812.75;;;18.18;42.20
56928;BME280;60850;52.502;13.426;2023-03-18T10:20:27;100810.25;;;18.15;42.30
56928;BME280;60850;52.502;13.426;2023-03-18T10:23:10;100811.75;;;18.20;41.99
56928;BME280;60850;52.502;13.426;2023-03-18T10:25:50;100809.28;;;18.16;41.95
56928;BME280;60850;52.502;13.426;2023-03-18T10:28:45;100810.06;;;18.18;42.54
56928;BME280;60850;52.502;13.426;2023-03-18T10:31:26;100799.34;;;18.32;43.02
56928;BME280;60850;52.502;13.426;2023-03-18T10:33:58;100799.97;;;18.37;42.61
56928;BME280;60850;52.502;13.426;2023-03-18T10:36:31;100805.63;;;18.48;42.71
56928;BME280;60850;52.502;13.426;2023-03-18T10:39:10;100799.59;;;18.43;42.43
56928;BME280;60850;52.502;13.426;2023-03-18T10:41:39;100799.28;;;18.33;42.75
56928;BME280;60850;52.502;13.426;2023-03-18T10:44:16;100797.09;;;18.40;42.90
56928;BME280;60850;52.502;13.426;2023-03-18T10:46:45;100801.34;;;18.44;43.57
56928;BME280;60850;52.502;13.426;2023-03-18T10:49:15;100802.81;;;18.50;44.24
56928;BME280;60850;52.502;13.426;2023-03-18T10:51:48;100801.25;;;18.61;44.44
56928;BME280;60850;52.502;13.426;2023-03-18T10:54:21;100802.66;;;18.69;44.12
56928;BME280;60850;52.502;13.426;2023-03-18T10:56:50;100802.66;;;18.69;43.54
56928;BME280;60850;52.502;13.426;2023-03-18T10:59:19;100807.97;;;18.70;44.18
56928;BME280;60850;52.502;13.426;2023-03-18T11:01:51;100810.84;;;18.51;44.80
56928;BME280;60850;52.502;13.426;2023-03-18T11:04:19;100809.78;;;18.38;45.44
56928;BME280;60850;52.502;13.426;2023-03-18T11:06:50;100804.66;;;18.18;45.53
56928;BME280;60850;52.502;13.426;2023-03-18T11:09:21;100805.09;;;18.10;45.86
56928;BME280;60850;52.502;13.426;2023-03-18T11:11:55;100807.28;;;18.03;46.09
56928;BME280;60850;52.502;13.426;2023-03-18T11:14:27;100801.97;;;17.86;46.86
56928;BME280;60850;52.502;13.426;2023-03-18T11:16:56;100798.22;;;17.89;47.66
56928;BME280;60850;52.502;13.426;2023-03-18T11:19:29;100806.16;;;17.92;47.75
56928;BME280;60850;52.502;13.426;2023-03-18T11:22:03;100799.03;;;18.06;48.20
56928;BME280;60850;52.502;13.426;2023-03-18T11:24:32;100800.69;;;18.09;47.79
56928;BME280;60850;52.502;13.426;2023-03-18T11:27:24;100791.09;;;18.35;47.58
56928;BME280;60850;52.502;13.426;2023-03-18T11:29:57;100789.78;;;18.42;47.58
56928;BME280;60850;52.502;13.426;2023-03-18T11:32:26;100787.91;;;18.58;47.45
56928;BME280;60850;52.502;13.426;2023-03-18T11:34:54;100791.91;;;18.83;47.66
56928;BME280;60850;52.502;13.426;2023-03-18T11:37:28;100790.78;;;19.01;47.72
56928;BME280;60850;52.502;13.426;2023-03-18T11:40:14;100801.53;;;19.17;47.47
56928;BME280;60850;52.502;13.426;2023-03-18T11:42:44;100807.03;;;19.30;47.28
56928;BME280;60850;52.502;13.426;2023-03-18T11:45:29;100797.97;;;19.31;47.11
56928;BME280;60850;52.502;13.426;2023-03-18T11:47:57;100794.69;;;19.26;47.33
56928;BME280;60850;52.502;13.426;2023-03-18T11:50:26;100802.31;;;19.33;47.58
56928;BME280;60850;52.502;13.426;2023-03-18T11:52:59;100804.72;;;19.38;47.27
56928;BME280;60850;52.502;13.426;2023-03-18T11:55:37;100797.91;;;19.46;47.55
56928;BME280;60850;52.502;13.426;2023-03-18T11:58:27;100792.56;;;19.45;47.35
56928;BME280;60850;52.502;13.426;2023-03-18T12:01:05;100793.63;;;19.42;47.71
56928;BME280;60850;52.502;13.426;2023-03-18T12:04:05;100797.03;;;19.46;47.49
56928;BME280;60850;52.502;13.426;2023-03-18T12:06:39;100803.81;;;19.09;48.40
56928;BME280;60850;52.502;13.426;2023-03-18T12:09:12;100803.31;;;19.02;49.63
56928;BME280;60850;52.502;13.426;2023-03-18T12:11:58;100794.50;;;18.84;49.83
56928;BME280;60850;52.502;13.426;2023-03-18T12:14:31;100798.78;;;18.73;50.84
56928;BME280;60850;52.502;13.426;2023-03-18T12:17:13;100796.63;;;18.63;51.84
56928;BME280;60850;52.502;13.426;2023-03-18T12:19:59;100790.34;;;18.63;53.81
56928;BME280;60850;52.502;13.426;2023-03-18T12:22:43;100795.59;;;18.50;53.88
56928;BME280;60850;52.502;13.426;2023-03-18T12:25:49;100796.91;;;18.43;54.69
56928;BME280;60850;52.502;13.426;2023-03-18T12:28:31;100793.38;;;18.27;55.49
56928;BME280;60850;52.502;13.426;2023-03-18T12:31:10;100799.66;;;18.11;55.88
56928;BME280;60850;52.502;13.426;2023-03-18T12:33:50;100803.75;;;17.70;58.95
56928;BME280;60850;52.502;13.426;2023-03-18T12:36:32;100804.47;;;17.73;60.91
56928;BME280;60850;52.502;13.426;2023-03-18T12:42:31;100802.75;;;17.88;60.80
56928;BME280;60850;52.502;13.426;2023-03-18T12:45:09;100805.66;;;17.68;61.61
56928;BME280;60850;52.502;13.426;2023-03-18T12:47:42;100798.03;;;17.76;62.75
56928;BME280;60850;52.502;13.426;2023-03-18T12:50:14;100785.03;;;17.84;63.28
56928;BME280;60850;52.502;13.426;2023-03-18T12:52:44;100795.34;;;17.76;66.19
56928;BME280;60850;52.502;13.426;2023-03-18T12:55:15;100791.19;;;17.86;65.87
56928;BME280;60850;52.502;13.426;2023-03-18T12:57:45;100794.41;;;17.93;65.92
56928;BME280;60850;52.502;13.426;2023-03-18T13:00:19;100794.75;;;18.02;65.25
56928;BME280;60850;52.502;13.426;2023-03-18T13:02:57;100787.97;;;17.95;66.19